Time;durP1;ratioP1;P1;durP2;ratioP2;P2;SDS_P1;SDS_P2;PMS_P1;PMS_P2;Temp;Humidity;BMP_temperature;BMP_pressure;BME280_temperature;BME280_humidity;BME280_pressure;Samples;Min_cycle;Max_cycle;Signal;HPM_P1;HPM_P2
2023/01/25 00:01:42;;;;;;;40.50;15.65;;;0.60;99.90;;;;;;5134035;27;20042;-76
2023/01/25 00:04:08;;;;;;;38.13;15.07;;;0.60;99.90;;;;;;5132138;27;20050;-76
2023/01/25 00:06:34;;;;;;;35.50;14.90;;;0.60;99.90;;;;;;5115204;27;20134;-76
2023/01/25 00:08:59;;;;;;;34.95;14.77;;;1.10;99.90;;;;;;5133511;27;20058;-76
2023/01/25 00:11:25;;;;;;;34.10;14.98;;;0.60;99.90;;;;;;5133215;27;20054;-76
2023/01/25 00:13:55;;;;;;;37.17;14.85;;;0.60;99.90;;;;;;5133497;27;20133;-76
2023/01/25 00:16:21;;;;;;;34.33;14.10;;;1.10;99.90;;;;;;5139796;27;20074;-76
2023/01/25 00:18:48;;;;;;;36.47;14.65;;;0.60;99.90;;;;;;5154084;27;20054;-76
2023/01/25 00:21:16;;;;;;;38.40;16.20;;;0.50;99.90;;;;;;5135059;27;20053;-76
2023/01/25 00:23:42;;;;;;;38.08;15.50;;;0.50;99.90;;;;;;5134589;27;20156;-76
2023/01/25 00:26:08;;;;;;;32.78;14.05;;;0.80;99.90;;;;;;5132544;27;20082;-76
2023/01/25 00:28:33;;;;;;;41.83;14.85;;;0.50;99.90;;;;;;5133126;27;20047;-76
2023/01/25 00:31:04;;;;;;;34.65;13.77;;;0.40;99.90;;;;;;5147652;27;20042;-76
2023/01/25 00:33:48;;;;;;;35.25;15.07;;;0.50;99.90;;;;;;5153803;27;20046;-76
2023/01/25 00:36:40;;;;;;;35.72;14.35;;;1.20;99.90;;;;;;5152932;27;20034;-76
2023/01/25 00:39:09;;;;;;;33.45;14.27;;;0.50;99.90;;;;;;5153597;27;20050;-76
2023/01/25 00:41:35;;;;;;;39.38;14.68;;;0.50;99.90;;;;;;5150647;27;20088;-76
2023/01/25 00:44:01;;;;;;;31.52;13.40;;;0.50;99.90;;;;;;5153353;27;20567;-76
2023/01/25 00:46:27;;;;;;;34.35;13.23;;;0.50;99.90;;;;;;5142635;27;20050;-76
2023/01/25 00:48:53;;;;;;;33.08;14.35;;;0.50;99.90;;;;;;5131489;27;20088;-76
2023/01/25 00:51:20;;;;;;;31.13;12.73;;;0.50;99.90;;;;;;5132265;27;20488;-76
2023/01/25 00:53:45;;;;;;;;;;;0.50;99.90;;;;;;5115232;27;20118;-76
2023/01/25 00:56:11;;;;;;;30.95;13.00;;;0.50;99.90;;;;;;5113117;27;20006;-76
2023/01/25 00:58:37;;;;;;;38.60;14.07;;;0.50;99.90;;;;;;5121349;27;20047;-76
2023/01/25 01:01:03;;;;;;;34.75;14.13;;;0.50;99.90;;;;;;5114306;27;20047;-76
2023/01/25 01:03:28;;;;;;;;;;;0.50;99.90;;;;;;5136402;27;20142;-76
2023/01/25 01:06:07;;;;;;;31.25;13.55;;;0.50;99.90;;;;;;5136979;27;20406;-76
2023/01/25 01:08:34;;;;;;;38.75;15.45;;;0.50;99.90;;;;;;5132742;27;20049;-76
2023/01/25 01:11:06;;;;;;;31.77;13.13;;;0.50;99.90;;;;;;5132207;27;20047;-76
2023/01/25 01:13:32;;;;;;;35.70;13.95;;;0.50;99.90;;;;;;5125929;27;20066;-76
2023/01/25 01:16:01;;;;;;;33.20;14.45;;;0.50;99.90;;;;;;5152937;27;20051;-76
2023/01/25 01:18:28;;;;;;;37.58;15.02;;;0.40;99.90;;;;;;5134642;27;20667;-76
2023/01/25 01:20:54;;;;;;;40.67;15.23;;;0.40;99.90;;;;;;5153400;27;20046;-76
2023/01/25 01:23:20;;;;;;;;;;;0.40;99.90;;;;;;5150268;27;20054;-76
2023/01/25 01:25:45;;;;;;;38.33;15.55;;;0.40;99.90;;;;;;5153565;27;19923;-76
2023/01/25 01:28:11;;;;;;;38.53;14.52;;;0.40;99.90;;;;;;5141995;27;20047;-76
2023/01/25 01:30:38;;;;;;;35.10;14.27;;;0.30;99.90;;;;;;5132377;27;20559;-76
2023/01/25 01:33:04;;;;;;;40.28;15.32;;;0.30;99.90;;;;;;5113739;27;20473;-76
2023/01/25 01:35:31;;;;;;;41.92;15.73;;;0.30;99.90;;;;;;5153016;27;20125;-76
2023/01/25 01:37:56;;;;;;;36.63;14.60;;;0.30;99.90;;;;;;5152282;27;20035;-76
2023/01/25 01:40:23;;;;;;;40.08;15.48;;;0.30;99.90;;;;;;5152638;27;20095;-76
2023/01/25 01:43:15;;;;;;;40.00;15.57;;;0.30;99.90;;;;;;5115984;27;20059;-76
2023/01/25 01:45:50;;;;;;;35.88;15.07;;;0.30;99.90;;;;;;5141358;27;20142;-76
2023/01/25 01:48:22;;;;;;;38.38;15.93;;;0.30;99.90;;;;;;5123222;27;20132;-76
2023/01/25 01:50:52;;;;;;;35.50;14.57;;;0.30;99.90;;;;;;5132098;27;20180;-76
2023/01/25 01:53:19;;;;;;;42.63;16.75;;;0.40;99.90;;;;;;5130994;27;20804;-76
2023/01/25 01:55:46;;;;;;;42.53;16.60;;;0.40;99.90;;;;;;5131994;27;20396;-76
2023/01/25 01:58:12;;;;;;;42.45;16.23;;;0.40;99.90;;;;;;5128967;27;20055;-77
2023/01/25 02:00:40;;;;;;;40.45;15.68;;;0.40;99.90;;;;;;5131955;27;20043;-76
2023/01/25 02:03:06;;;;;;;42.00;15.85;;;0.40;99.90;;;;;;5130537;27;20047;-76
2023/01/25 02:05:32;;;;;;;42.83;17.65;;;0.40;99.90;;;;;;5149952;27;20055;-76
2023/01/25 02:07:59;;;;;;;41.22;15.95;;;0.30;99.90;;;;;;5151027;27;20444;-76
2023/01/25 02:10:27;;;;;;;42.88;16.25;;;0.30;99.90;;;;;;5139708;27;20139;-76
2023/01/25 02:12:54;;;;;;;40.03;15.90;;;0.30;99.90;;;;;;5112439;28;20430;-76
2023/01/25 02:15:20;;;;;;;40.03;16.27;;;0.40;99.90;;;;;;5131043;28;20057;-76
2023/01/25 02:17:47;;;;;;;41.53;15.85;;;0.70;99.90;;;;;;5122800;27;20050;-76
2023/01/25 02:20:13;;;;;;;40.08;16.80;;;0.40;99.90;;;;;;5151954;27;20082;-76
2023/01/25 02:22:51;;;;;;;39.58;15.65;;;0.40;99.90;;;;;;5151762;27;20082;-76
2023/01/25 02:25:17;;;;;;;41.67;15.90;;;0.40;99.90;;;;;;5152017;27;20057;-77
2023/01/25 02:28:18;;;;;;;48.83;17.98;;;0.40;99.90;;;;;;5147990;27;20051;-77
2023/01/25 02:30:45;;;;;;;46.10;17.02;;;0.40;99.90;;;;;;5085808;28;20411;-77
2023/01/25 02:33:11;;;;;;;41.17;16.08;;;0.40;99.90;;;;;;5114202;27;20047;-77
2023/01/25 02:35:52;;;;;;;43.28;17.63;;;0.40;99.90;;;;;;5152201;27;20031;-76
2023/01/25 02:38:20;;;;;;;38.65;15.60;;;0.40;99.90;;;;;;5146522;27;20092;-76
2023/01/25 02:40:54;;;;;;;39.00;16.60;;;0.40;99.90;;;;;;5131586;28;20087;-76
2023/01/25 02:43:22;;;;;;;42.30;16.42;;;0.40;99.90;;;;;;5129888;28;20086;-76
2023/01/25 02:45:55;;;;;;;46.13;15.90;;;0.40;99.90;;;;;;5131535;28;20043;-76
2023/01/25 02:48:21;;;;;;;36.45;14.63;;;0.30;99.90;;;;;;5130266;28;20392;-76
2023/01/25 02:50:46;;;;;;;36.65;15.40;;;0.30;99.90;;;;;;5131489;28;20043;-76
2023/01/25 02:53:12;;;;;;;36.10;14.45;;;0.30;99.90;;;;;;5146804;27;20494;-77
2023/01/25 02:55:37;;;;;;;35.17;15.23;;;0.30;99.90;;;;;;5152064;27;20485;-76
2023/01/25 02:58:03;;;;;;;37.22;13.98;;;0.60;99.90;;;;;;5131864;27;20119;-76
2023/01/25 03:00:29;;;;;;;33.92;14.35;;;0.20;99.90;;;;;;5141386;27;20055;-76
2023/01/25 03:02:54;;;;;;;33.58;13.60;;;0.10;99.90;;;;;;5130803;28;20142;-76
2023/01/25 03:05:20;;;;;;;34.70;13.80;;;0.10;99.90;;;;;;5130527;27;20395;-76
2023/01/25 03:07:46;;;;;;;36.00;14.48;;;0.10;99.90;;;;;;5130526;28;20043;-77
2023/01/25 03:10:11;;;;;;;34.92;13.27;;;0.10;99.90;;;;;;5133023;27;20047;-76
2023/01/25 03:12:37;;;;;;;36.25;14.90;;;0.10;99.90;;;;;;5134182;27;20050;-76
2023/01/25 03:15:04;;;;;;;42.08;14.75;;;0.70;99.90;;;;;;5136080;27;20438;-76
2023/01/25 03:17:30;;;;;;;;;;;0.20;99.90;;;;;;5135059;27;20096;-76
2023/01/25 03:19:55;;;;;;;40.13;15.55;;;0.30;99.90;;;;;;5116611;27;19923;-76
2023/01/25 03:22:21;;;;;;;35.08;14.35;;;0.20;99.90;;;;;;5145056;27;20204;-76
2023/01/25 03:24:47;;;;;;;41.90;16.00;;;0.30;99.90;;;;;;5155573;27;20471;-76
2023/01/25 03:27:13;;;;;;;42.03;16.15;;;0.20;99.90;;;;;;5136030;27;20073;-76
2023/01/25 03:29:40;;;;;;;41.33;15.55;;;0.30;99.90;;;;;;5136976;27;20050;-76
2023/01/25 03:32:06;;;;;;;36.90;13.23;;;0.20;99.90;;;;;;5136872;27;20090;-76
2023/01/25 03:34:32;;;;;;;35.17;14.63;;;0.20;99.90;;;;;;5152971;27;20051;-76
2023/01/25 03:36:57;;;;;;;38.65;15.07;;;0.60;99.90;;;;;;5154575;27;20035;-76
2023/01/25 03:39:23;;;;;;;35.95;14.95;;;0.10;99.90;;;;;;5129039;27;20488;-76
2023/01/25 03:41:49;;;;;;;43.30;16.23;;;0.10;99.90;;;;;;5133742;27;20047;-76
2023/01/25 03:44:14;;;;;;;43.80;16.55;;;0.10;99.90;;;;;;5133897;27;20476;-76
2023/01/25 03:46:41;;;;;;;41.78;17.35;;;0.40;99.90;;;;;;5141608;27;20118;-76
2023/01/25 03:49:07;;;;;;;;;;;0.20;99.90;;;;;;5154846;27;20064;-77
2023/01/25 03:51:33;;;;;;;43.28;16.75;;;0.20;99.90;;;;;;5154300;27;19979;-76
2023/01/25 03:53:58;;;;;;;48.17;16.58;;;0.20;99.90;;;;;;5136886;27;20122;-77
2023/01/25 03:56:24;;;;;;;44.05;18.38;;;0.20;99.90;;;;;;5119528;27;20483;-76
2023/01/25 03:58:50;;;;;;;48.35;17.58;;;0.20;99.90;;;;;;5154745;27;20058;-77
2023/01/25 04:01:15;;;;;;;44.42;16.90;;;0.70;99.90;;;;;;5135730;27;20047;-76
2023/01/25 04:03:41;;;;;;;48.22;17.90;;;0.20;99.90;;;;;;5136237;27;20149;-76
2023/01/25 04:06:07;;;;;;;49.00;18.60;;;0.20;99.90;;;;;;5154074;27;20035;-76
2023/01/25 04:08:33;;;;;;;50.47;16.88;;;0.20;99.90;;;;;;5151331;27;20503;-76
2023/01/25 04:11:04;;;;;;;48.67;18.17;;;0.20;99.90;;;;;;5133919;27;20408;-76
2023/01/25 04:13:30;;;;;;;42.53;15.90;;;0.20;99.90;;;;;;5138118;27;20391;-76
2023/01/25 04:15:56;;;;;;;;;;;0.10;99.90;;;;;;5136372;27;20178;-76
2023/01/25 04:18:22;;;;;;;40.13;15.13;;;0.10;99.90;;;;;;5153571;27;20346;-76
2023/01/25 04:20:52;;;;;;;45.38;16.73;;;0.10;99.90;;;;;;5154010;27;20045;-76
2023/01/25 04:23:18;;;;;;;43.40;17.98;;;0.10;99.90;;;;;;5148639;27;20100;-77
2023/01/25 04:25:55;;;;;;;43.70;19.05;;;0.10;99.90;;;;;;5133730;27;20051;-76
2023/01/25 04:28:21;;;;;;;43.35;16.70;;;0.00;99.90;;;;;;5132182;27;20043;-76
2023/01/25 04:30:47;;;;;;;42.58;15.75;;;0.00;99.90;;;;;;5132437;27;20086;-76
2023/01/25 04:33:13;;;;;;;40.13;15.00;;;0.00;99.90;;;;;;5140641;27;20450;-76
2023/01/25 04:35:39;;;;;;;37.40;14.75;;;0.00;99.90;;;;;;5153821;27;20046;-76
2023/01/25 04:38:05;;;;;;;40.70;17.08;;;-0.10;99.90;;;;;;5153461;27;20082;-76
2023/01/25 04:40:30;;;;;;;35.63;14.30;;;-0.10;99.90;;;;;;5129612;27;20243;-76
2023/01/25 04:42:56;;;;;;;37.28;14.25;;;0.00;99.90;;;;;;5132351;27;20051;-76
2023/01/25 04:45:24;;;;;;;32.00;13.20;;;0.00;99.90;;;;;;5132864;27;20051;-76
2023/01/25 04:47:56;;;;;;;38.10;14.68;;;0.20;99.90;;;;;;5132753;27;20055;-76
2023/01/25 04:50:21;;;;;;;40.97;13.77;;;0.20;99.90;;;;;;5132698;27;20050;-76
2023/01/25 04:52:47;;;;;;;33.28;14.40;;;0.10;99.90;;;;;;5133512;27;20043;-76
2023/01/25 04:55:13;;;;;;;39.22;15.13;;;0.10;99.90;;;;;;5153030;27;20039;-76
2023/01/25 04:57:38;;;;;;;35.70;13.20;;;0.10;99.90;;;;;;5152645;27;20047;-76
2023/01/25 05:00:05;;;;;;;42.22;15.50;;;0.10;99.90;;;;;;5135013;27;20047;-76
2023/01/25 05:02:31;;;;;;;34.55;13.55;;;0.10;99.90;;;;;;5153002;27;20050;-76
2023/01/25 05:04:56;;;;;;;35.20;12.77;;;1.00;99.90;;;;;;5151042;27;20402;-76
2023/01/25 05:07:22;;;;;;;35.95;13.73;;;0.00;99.90;;;;;;5152301;27;20053;-76
2023/01/25 05:09:48;;;;;;;31.25;12.73;;;0.40;99.90;;;;;;5119096;27;20476;-76
2023/01/25 05:12:13;;;;;;;37.97;14.65;;;0.20;99.90;;;;;;5132925;27;20051;-76
2023/01/25 05:14:39;;;;;;;36.72;14.15;;;-0.10;99.90;;;;;;5153263;27;20050;-76
2023/01/25 05:17:06;;;;;;;37.03;14.95;;;-0.10;99.90;;;;;;5134758;27;20084;-76
2023/01/25 05:19:32;;;;;;;38.10;13.45;;;-0.20;99.90;;;;;;5134268;27;20823;-76
2023/01/25 05:22:06;;;;;;;34.17;14.05;;;-0.20;99.90;;;;;;5134363;27;20053;-76
2023/01/25 05:24:33;;;;;;;34.38;13.75;;;-0.20;99.90;;;;;;5152559;27;20046;-77
2023/01/25 05:27:02;;;;;;;39.55;14.88;;;-0.30;99.90;;;;;;5152235;27;20091;-76
2023/01/25 05:29:36;;;;;;;38.13;13.85;;;-0.30;99.90;;;;;;5151029;27;20437;-77
2023/01/25 05:32:10;;;;;;;39.75;16.00;;;-0.30;99.90;;;;;;5152967;27;20407;-77
2023/01/25 05:34:36;;;;;;;37.17;15.20;;;-0.30;99.90;;;;;;5131770;27;20131;-76
2023/01/25 05:37:03;;;;;;;38.58;15.13;;;-0.30;99.90;;;;;;5131478;27;20213;-76
2023/01/25 05:39:29;;;;;;;37.65;14.52;;;-0.30;99.90;;;;;;5131742;27;20050;-76
2023/01/25 05:41:55;;;;;;;;;;;-0.30;99.90;;;;;;5131567;27;20057;-76
2023/01/25 05:44:20;;;;;;;38.92;15.63;;;-0.30;99.90;;;;;;5115728;27;20014;-76
2023/01/25 05:46:46;;;;;;;38.88;15.02;;;-0.30;99.90;;;;;;5146843;27;20043;-76
2023/01/25 05:49:12;;;;;;;41.75;14.85;;;-0.30;99.90;;;;;;5134130;27;20042;-76
2023/01/25 05:51:38;;;;;;;40.00;15.10;;;-0.40;99.90;;;;;;5151625;27;20126;-76
2023/01/25 05:54:11;;;;;;;40.72;16.35;;;-0.40;99.90;;;;;;5125592;27;20126;-77
2023/01/25 05:56:37;;;;;;;38.70;14.00;;;-0.40;99.90;;;;;;5130528;27;20162;-76
2023/01/25 05:59:02;;;;;;;38.42;14.18;;;-0.30;99.90;;;;;;5113677;28;20173;-76
2023/01/25 06:01:28;;;;;;;39.20;15.48;;;-0.30;99.90;;;;;;5130604;27;20386;-76
2023/01/25 06:03:55;;;;;;;43.70;16.98;;;-0.30;99.90;;;;;;5130932;27;20488;-76
2023/01/25 06:06:21;;;;;;;36.97;14.35;;;-0.30;99.90;;;;;;5124552;27;20083;-76
2023/01/25 06:08:46;;;;;;;;;;;-0.30;99.90;;;;;;5132060;27;20054;-76
2023/01/25 06:11:15;;;;;;;42.15;14.90;;;-0.20;99.90;;;;;;5131102;27;19927;-76
2023/01/25 06:13:41;;;;;;;36.22;13.82;;;0.00;99.90;;;;;;5131475;27;20066;-76
2023/01/25 06:16:07;;;;;;;47.50;15.25;;;-0.20;99.90;;;;;;5131967;27;20473;-76
2023/01/25 06:18:33;;;;;;;40.58;15.10;;;-0.20;99.90;;;;;;5130914;28;20051;-76
2023/01/25 06:21:00;;;;;;;38.22;14.45;;;0.20;99.90;;;;;;5132588;27;20050;-76
2023/01/25 06:23:26;;;;;;;38.78;14.27;;;-0.20;99.90;;;;;;5130601;28;20079;-76
2023/01/25 06:25:56;;;;;;;46.22;16.17;;;0.00;99.90;;;;;;5131714;28;20115;-76
2023/01/25 06:28:21;;;;;;;36.47;13.98;;;-0.20;99.90;;;;;;5111910;28;20050;-76
2023/01/25 06:30:47;;;;;;;40.45;14.43;;;0.30;99.90;;;;;;5131693;28;20130;-76
2023/01/25 06:33:13;;;;;;;39.65;16.08;;;-0.10;99.90;;;;;;5131092;28;20064;-76
2023/01/25 06:35:39;;;;;;;39.00;15.40;;;0.10;99.90;;;;;;5131062;28;20035;-76
2023/01/25 06:38:05;;;;;;;33.25;13.43;;;-0.10;99.90;;;;;;5129527;28;20055;-76
2023/01/25 06:40:31;;;;;;;35.08;13.32;;;-0.20;99.90;;;;;;5130981;28;20051;-76
2023/01/25 06:43:11;;;;;;;29.67;12.95;;;-0.20;99.90;;;;;;5147772;27;20621;-76
2023/01/25 06:45:37;;;;;;;30.38;11.73;;;-0.20;99.90;;;;;;5134322;27;20039;-76
2023/01/25 06:48:03;;;;;;;31.75;12.50;;;-0.20;99.90;;;;;;5116984;27;20129;-76
2023/01/25 06:50:29;;;;;;;30.75;13.27;;;-0.20;99.90;;;;;;5117071;27;20137;-76
2023/01/25 06:52:55;;;;;;;34.78;12.48;;;-0.10;99.90;;;;;;5126059;27;20452;-76
2023/01/25 06:55:21;;;;;;;32.30;13.25;;;-0.10;99.90;;;;;;5137128;27;20075;-76
2023/01/25 06:57:48;;;;;;;35.28;13.18;;;-0.30;99.90;;;;;;5154369;27;20051;-76
2023/01/25 07:00:15;;;;;;;29.65;12.25;;;-0.30;99.90;;;;;;5156046;27;20050;-76
2023/01/25 07:02:41;;;;;;;30.20;12.50;;;-0.30;99.90;;;;;;5154955;27;20043;-76
2023/01/25 07:05:07;;;;;;;33.40;12.77;;;-0.30;99.90;;;;;;5156083;27;20418;-76
2023/01/25 07:07:33;;;;;;;32.38;12.57;;;-0.30;99.90;;;;;;5154418;27;20047;-76
2023/01/25 07:10:00;;;;;;;27.02;11.25;;;-0.30;99.90;;;;;;5135195;27;20095;-76
2023/01/25 07:12:29;;;;;;;33.00;12.82;;;-0.40;99.90;;;;;;5154495;27;20046;-76
2023/01/25 07:14:54;;;;;;;32.95;12.27;;;-0.40;99.90;;;;;;5154400;27;20057;-76
2023/01/25 07:17:20;;;;;;;31.10;13.13;;;-0.40;99.90;;;;;;5137280;27;20039;-76
2023/01/25 07:19:46;;;;;;;26.42;11.40;;;-0.40;99.90;;;;;;5154986;27;20595;-76
2023/01/25 07:22:11;;;;;;;30.75;11.75;;;0.30;99.90;;;;;;5154763;27;20065;-76
2023/01/25 07:24:37;;;;;;;31.15;12.93;;;-0.30;99.90;;;;;;5140593;27;20046;-76
2023/01/25 07:27:03;;;;;;;30.52;12.68;;;-0.30;99.90;;;;;;5133938;27;20043;-76
2023/01/25 07:29:29;;;;;;;28.23;11.95;;;-0.30;99.90;;;;;;5134036;27;20055;-76
2023/01/25 07:31:55;;;;;;;34.42;13.25;;;-0.30;99.90;;;;;;5147659;27;20054;-76
2023/01/25 07:34:20;;;;;;;;;;;0.20;99.90;;;;;;5155437;27;20051;-74
2023/01/25 07:36:46;;;;;;;30.60;11.35;;;0.30;99.90;;;;;;5138447;27;20284;-74
2023/01/25 07:39:12;;;;;;;32.33;12.25;;;-0.20;99.90;;;;;;5116438;27;20778;-72
2023/01/25 07:41:38;;;;;;;;;;;0.60;99.90;;;;;;5133529;27;20116;-73
2023/01/25 07:44:04;;;;;;;27.30;12.00;;;0.20;99.90;;;;;;5142351;27;20380;-78
2023/01/25 07:46:30;;;;;;;28.38;11.38;;;0.20;99.90;;;;;;5154334;27;20515;-78
2023/01/25 07:48:57;;;;;;;31.02;11.48;;;0.50;99.90;;;;;;5154562;27;20041;-72
2023/01/25 07:51:25;;;;;;;27.45;11.18;;;0.10;99.90;;;;;;5154470;27;20042;-76
2023/01/25 07:54:02;;;;;;;31.65;12.13;;;0.70;99.90;;;;;;5154863;27;20121;-76
2023/01/25 07:56:28;;;;;;;;;;;-0.10;99.90;;;;;;5149285;27;20124;-76
2023/01/25 07:58:55;;;;;;;29.45;11.50;;;0.80;99.90;;;;;;5147549;27;20439;-76
2023/01/25 08:01:23;;;;;;;29.00;12.00;;;-0.20;99.90;;;;;;5134036;27;20039;-76
2023/01/25 08:03:49;;;;;;;34.58;13.05;;;-0.20;99.90;;;;;;5114790;27;20098;-76
2023/01/25 08:06:16;;;;;;;28.30;11.90;;;-0.30;99.90;;;;;;5114928;27;20618;-76
2023/01/25 08:08:47;;;;;;;27.35;11.40;;;-0.30;99.90;;;;;;5152574;27;20100;-76
2023/01/25 08:11:20;;;;;;;32.05;11.73;;;-0.30;99.90;;;;;;5154197;27;20097;-76
2023/01/25 08:13:46;;;;;;;31.73;12.68;;;0.10;99.90;;;;;;5153926;27;20049;-76
2023/01/25 08:16:16;;;;;;;31.30;12.68;;;-0.40;99.90;;;;;;5152191;27;20042;-76
2023/01/25 08:18:45;;;;;;;28.38;11.45;;;-0.40;99.90;;;;;;5131877;27;20055;-76
2023/01/25 08:21:11;;;;;;;28.80;11.00;;;-0.40;99.90;;;;;;5133114;27;20043;-76
2023/01/25 08:23:37;;;;;;;31.77;12.25;;;-0.40;99.90;;;;;;5133235;27;20058;-76
2023/01/25 08:26:08;;;;;;;33.00;12.98;;;-0.30;99.90;;;;;;5133587;27;20121;-76
2023/01/25 08:28:34;;;;;;;31.95;12.15;;;-0.30;99.90;;;;;;5132202;27;20042;-76
2023/01/25 08:31:25;;;;;;;35.55;12.43;;;-0.30;99.90;;;;;;5126570;27;20467;-76
2023/01/25 08:33:51;;;;;;;31.23;12.20;;;-0.30;99.90;;;;;;5122422;27;20062;-76
2023/01/25 08:36:17;;;;;;;28.90;12.15;;;-0.40;99.90;;;;;;5132517;27;20039;-77
2023/01/25 08:38:46;;;;;;;27.98;11.48;;;-0.30;99.90;;;;;;5137293;27;20483;-79
2023/01/25 08:41:15;;;;;;;28.25;11.82;;;-0.40;99.90;;;;;;5153343;27;20384;-78
2023/01/25 08:43:42;;;;;;;31.70;12.50;;;-0.30;99.90;;;;;;5128796;27;20051;-79
2023/01/25 08:46:08;;;;;;;34.63;13.13;;;-0.30;99.90;;;;;;5145135;27;20047;-79
2023/01/25 08:48:34;;;;;;;;;;;-0.30;99.90;;;;;;5123087;27;20383;-79
2023/01/25 08:51:00;;;;;;;33.65;13.05;;;-0.30;99.90;;;;;;5143730;27;19927;-77
2023/01/25 08:53:27;;;;;;;35.08;12.65;;;-0.30;99.90;;;;;;5132523;27;20043;-76
2023/01/25 08:55:53;;;;;;;38.60;14.13;;;-0.10;99.90;;;;;;5132552;27;20043;-77
2023/01/25 08:58:21;;;;;;;32.72;12.80;;;-0.30;99.90;;;;;;5137316;27;20419;-76
2023/01/25 09:00:48;;;;;;;29.58;12.13;;;-0.30;99.90;;;;;;5140854;27;20110;-76
2023/01/25 09:03:14;;;;;;;31.85;13.05;;;-0.30;99.90;;;;;;5132398;27;20065;-77
2023/01/25 09:05:40;;;;;;;34.95;12.90;;;-0.30;99.90;;;;;;5132451;27;20043;-77
2023/01/25 09:08:07;;;;;;;37.28;13.57;;;-0.30;99.90;;;;;;5144708;27;20049;-76
2023/01/25 09:10:33;;;;;;;32.70;12.93;;;-0.30;99.90;;;;;;5117629;27;20103;-79
2023/01/25 09:12:59;;;;;;;35.60;13.68;;;-0.30;99.90;;;;;;5152315;27;20057;-78
2023/01/25 09:15:25;;;;;;;33.38;12.25;;;0.20;99.90;;;;;;5144734;27;20051;-78
2023/01/25 09:17:51;;;;;;;;;;;-0.30;99.90;;;;;;5113914;27;20051;-77
2023/01/25 09:20:17;;;;;;;35.20;13.15;;;-0.30;99.90;;;;;;5149082;27;19998;-78
2023/01/25 09:22:43;;;;;;;32.20;12.13;;;-0.30;99.90;;;;;;5152003;27;20138;-78
2023/01/25 09:25:08;;;;;;;34.60;12.77;;;-0.30;99.90;;;;;;5139865;27;20077;-76
2023/01/25 09:27:34;;;;;;;39.05;15.07;;;-0.30;99.90;;;;;;5102428;27;20107;-78
2023/01/25 09:30:00;;;;;;;33.03;11.93;;;-0.30;99.90;;;;;;5155764;27;20046;-77
2023/01/25 09:32:26;;;;;;;36.10;13.18;;;-0.40;99.90;;;;;;5169343;27;20046;-77
2023/01/25 09:34:51;;;;;;;34.15;13.27;;;-0.30;99.90;;;;;;5170649;27;20046;-77
2023/01/25 09:37:17;;;;;;;33.75;12.70;;;-0.30;99.90;;;;;;5152471;27;20479;-77
2023/01/25 09:39:43;;;;;;;33.15;13.57;;;-0.30;99.90;;;;;;5161374;27;20043;-78
2023/01/25 09:42:40;;;;;;;33.30;13.32;;;-0.30;99.90;;;;;;5158851;27;20038;-78
2023/01/25 09:45:18;;;;;;;;;;;-0.30;99.90;;;;;;5152263;27;20053;-78
2023/01/25 09:48:09;;;;;;;31.00;11.65;;;-0.20;99.90;;;;;;5168540;27;19919;-78
2023/01/25 09:50:52;;;;;;;37.95;13.15;;;-0.20;99.90;;;;;;5119680;27;20046;-78
2023/01/25 09:53:37;;;;;;;40.35;13.38;;;-0.10;99.90;;;;;;5132718;27;20372;-77
2023/01/25 09:56:29;;;;;;;38.40;13.90;;;-0.20;99.90;;;;;;5153157;27;20046;-77
2023/01/25 09:58:59;;;;;;;38.92;13.32;;;-0.20;99.90;;;;;;5128520;27;20518;-76
2023/01/25 10:01:51;;;;;;;33.92;14.00;;;-0.20;99.90;;;;;;5112579;27;20617;-77
2023/01/25 10:04:36;;;;;;;37.10;13.73;;;-0.20;99.90;;;;;;5125642;27;20116;-77
2023/01/25 10:07:26;;;;;;;32.63;12.52;;;-0.30;99.90;;;;;;5128535;27;20489;-77
2023/01/25 10:10:05;;;;;;;36.17;12.15;;;-0.30;99.90;;;;;;5110486;28;20447;-77
2023/01/25 10:12:37;;;;;;;35.63;13.20;;;-0.30;99.90;;;;;;5108178;28;20384;-77
2023/01/25 10:15:25;;;;;;;30.88;11.70;;;-0.40;99.90;;;;;;5109968;28;20079;-77
2023/01/25 10:18:25;;;;;;;37.70;12.82;;;-0.40;99.90;;;;;;5108909;28;20047;-77
2023/01/25 10:20:59;;;;;;;30.98;11.60;;;-0.40;99.90;;;;;;5100864;28;20097;-77
2023/01/25 10:23:32;;;;;;;38.15;12.75;;;-0.40;99.90;;;;;;5118101;28;20043;-77
2023/01/25 10:26:06;;;;;;;37.53;13.25;;;-0.40;99.90;;;;;;5115518;27;20046;-77
2023/01/25 10:28:55;;;;;;;32.67;11.98;;;-0.40;99.90;;;;;;5122229;28;20047;-77
2023/01/25 10:31:38;;;;;;;34.45;12.48;;;-0.50;99.90;;;;;;5125977;28;20061;-77
2023/01/25 10:34:19;;;;;;;30.73;12.05;;;-0.50;99.90;;;;;;5123185;28;20091;-77
2023/01/25 10:36:54;;;;;;;28.02;11.45;;;-0.50;99.90;;;;;;5125525;28;20487;-77
2023/01/25 10:39:20;;;;;;;28.45;12.52;;;-0.50;99.90;;;;;;5128060;28;20545;-78
2023/01/25 10:42:00;;;;;;;28.85;11.35;;;-0.50;99.90;;;;;;5127198;28;20063;-77
2023/01/25 10:44:26;;;;;;;26.13;11.90;;;-0.30;99.90;;;;;;5128596;28;20047;-76
2023/01/25 10:47:22;;;;;;;26.55;10.95;;;-0.40;99.90;;;;;;5129342;28;20112;-76
2023/01/25 10:49:54;;;;;;;29.95;10.95;;;-0.50;99.90;;;;;;5124459;28;20669;-77
2023/01/25 10:52:29;;;;;;;26.80;12.18;;;-0.50;99.90;;;;;;5114929;28;20096;-77
2023/01/25 10:55:25;;;;;;;26.45;10.73;;;-0.50;99.90;;;;;;5125818;28;20050;-77
2023/01/25 10:57:56;;;;;;;32.53;12.57;;;-0.50;99.90;;;;;;5124395;27;20113;-77
2023/01/25 11:00:49;;;;;;;32.85;11.35;;;-0.50;99.90;;;;;;5140581;27;20066;-77
2023/01/25 11:03:19;;;;;;;31.00;11.15;;;-0.10;99.90;;;;;;5130645;27;20078;-77
2023/01/25 11:05:53;;;;;;;34.13;12.68;;;-0.50;99.90;;;;;;5139192;27;20039;-77
2023/01/25 11:08:33;;;;;;;31.52;12.77;;;-0.50;99.90;;;;;;5133404;27;20050;-76
2023/01/25 11:11:12;;;;;;;25.42;10.85;;;-0.40;99.90;;;;;;5130516;27;20055;-77
2023/01/25 11:13:40;;;;;;;42.65;14.05;;;-0.40;99.90;;;;;;5128429;27;20051;-78
2023/01/25 11:16:27;;;;;;;31.13;12.25;;;0.00;99.90;;;;;;5119008;28;20516;-78
2023/01/25 11:18:54;;;;;;;;;;;-0.40;99.90;;;;;;5149504;27;20054;-77
2023/01/25 11:21:24;;;;;;;35.07;13.40;;;-0.40;99.90;;;;;;5130007;27;20002;-77
2023/01/25 11:24:08;;;;;;;32.50;12.27;;;-0.40;99.90;;;;;;5127923;27;20476;-77
2023/01/25 11:26:36;;;;;;;35.97;12.82;;;-0.20;99.90;;;;;;5146090;27;20083;-77
2023/01/25 11:29:17;;;;;;;34.45;12.93;;;-0.40;99.90;;;;;;5149171;27;20055;-77
2023/01/25 11:31:54;;;;;;;33.67;13.38;;;-0.40;99.90;;;;;;5152174;27;20043;-77
2023/01/25 11:34:28;;;;;;;29.95;12.55;;;-0.50;99.90;;;;;;5152699;27;20039;-78
2023/01/25 11:37:23;;;;;;;32.83;11.93;;;-0.50;99.90;;;;;;5151492;27;20070;-77
2023/01/25 11:40:11;;;;;;;31.95;11.93;;;-0.50;99.90;;;;;;5143586;27;20115;-77
2023/01/25 11:42:58;;;;;;;35.70;13.35;;;-0.60;99.90;;;;;;5151411;27;20734;-78
2023/01/25 11:45:44;;;;;;;35.67;13.27;;;-0.60;99.90;;;;;;5149767;27;20054;-77
2023/01/25 11:48:42;;;;;;;36.13;12.38;;;-0.60;99.90;;;;;;5149185;27;20051;-77
2023/01/25 11:51:44;;;;;;;33.05;12.52;;;-0.60;99.90;;;;;;5149639;27;20441;-78
2023/01/25 11:54:28;;;;;;;32.35;13.65;;;-0.70;99.90;;;;;;5127518;27;20066;-77
2023/01/25 11:57:03;;;;;;;33.45;13.00;;;-0.60;99.90;;;;;;5154860;27;20053;-79
2023/01/25 11:59:44;;;;;;;34.60;12.73;;;-0.60;99.90;;;;;;5154267;27;20099;-78
2023/01/25 12:02:29;;;;;;;39.88;14.32;;;-0.60;99.90;;;;;;5163188;27;20775;-78
2023/01/25 12:04:58;;;;;;;32.80;12.15;;;-0.60;99.90;;;;;;5143773;27;20486;-77
2023/01/25 12:07:45;;;;;;;32.60;12.77;;;-0.60;99.90;;;;;;5151675;27;20050;-77
2023/01/25 12:10:49;;;;;;;35.63;12.52;;;-0.60;99.90;;;;;;5135223;27;20050;-78
2023/01/25 12:13:39;;;;;;;35.35;10.65;;;-0.60;99.90;;;;;;5134374;27;20491;-77
2023/01/25 12:16:11;;;;;;;31.73;11.13;;;-0.60;99.90;;;;;;5142631;27;20384;-77
2023/01/25 12:19:06;;;;;;;31.10;11.57;;;-0.60;99.90;;;;;;5153487;27;20045;-77
2023/01/25 12:21:53;;;;;;;38.33;14.13;;;-0.60;99.90;;;;;;5153494;27;20046;-77
2023/01/25 12:24:28;;;;;;;36.72;12.18;;;-0.60;99.90;;;;;;5135716;27;20069;-77
2023/01/25 12:27:03;;;;;;;36.67;12.43;;;-0.60;99.90;;;;;;5132168;27;20058;-78
2023/01/25 12:29:49;;;;;;;40.85;12.45;;;-0.70;99.90;;;;;;5145233;27;20047;-78
2023/01/25 12:32:29;;;;;;;34.85;11.60;;;-0.70;99.90;;;;;;5135601;27;20487;-77
2023/01/25 12:35:29;;;;;;;34.55;11.38;;;-0.80;99.90;;;;;;5141848;27;20495;-78
2023/01/25 12:38:01;;;;;;;32.58;11.93;;;-0.80;99.90;;;;;;5139372;27;20069;-77
2023/01/25 12:40:46;;;;;;;31.30;12.23;;;-0.80;99.90;;;;;;5153114;27;20171;-77
2023/01/25 12:43:20;;;;;;;30.83;11.95;;;-0.90;99.90;;;;;;5150949;27;20094;-78
2023/01/25 12:45:49;;;;;;;38.15;12.98;;;-0.90;99.90;;;;;;5153156;27;20042;-77
2023/01/25 12:48:33;;;;;;;33.70;12.13;;;-0.90;99.90;;;;;;5152514;27;20053;-77
2023/01/25 12:50:59;;;;;;;34.17;11.95;;;-0.90;99.90;;;;;;5147290;27;20053;-78
2023/01/25 12:53:49;;;;;;;35.42;13.38;;;-0.90;99.90;;;;;;5147268;27;20129;-77